Погода Большое Кисловона 2 недели

Тверская область, Россия

22 мая-04 июня
  • 22мая
    Сегодня
    +9°
    +24°
    Ясно и безоблачно
    ВремяПогодаТемператураВлажностьДавлениеВетер, м/сВероятность осадков
    00:00Ясно и безоблачно+12°C53 %749 мм1.4 м/с2 %
    03:00Ясно и безоблачно+9°C66 %750 мм1.5 м/с2 %
    06:00Ясно и безоблачно+9°C72 %750 мм1.3 м/с2 %
    09:00Ясно и безоблачно+17°C58 %751 мм2.0 м/с2 %
    12:00Ясно и безоблачно+22°C40 %751 мм2.8 м/с2 %
    15:00Ясно и безоблачно+24°C36 %750 мм2.4 м/с2 %
    18:00Ясно и безоблачно+23°C38 %750 мм2.7 м/с2 %
    21:00Ясно и безоблачно+18°C57 %751 мм1.9 м/с2 %
  • 23мая
    Четверг
    +8°
    +23°
    Ясно и безоблачно
    ВремяПогодаТемператураВлажностьДавлениеВетер, м/сВероятность осадков
    00:00Ясно и безоблачно+12°C61 %752 мм1.5 м/с2 %
    03:00Ясно и безоблачно+10°C66 %753 мм1.6 м/с2 %
    06:00Ясно и безоблачно+10°C69 %753 мм1.7 м/с2 %
    09:00Ясно и безоблачно+17°C56 %754 мм2.6 м/с2 %
    12:00Ясно и безоблачно+21°C39 %755 мм3.7 м/с2 %
    15:00Ясно и безоблачно+23°C37 %755 мм3.0 м/с2 %
    18:00Ясно и безоблачно+22°C36 %754 мм3.1 м/с2 %
    21:00Ясно и безоблачно+17°C53 %755 мм2.0 м/с2 %
  • 24мая
    Пятница
    +8°
    +23°
    Ясно и безоблачно
    ВремяПогодаТемператураВлажностьДавлениеВетер, м/сВероятность осадков
    00:00Ясно и безоблачно+12°C62 %755 мм1.3 м/с2 %
    03:00Ясно и безоблачно+10°C70 %756 мм1.4 м/с2 %
    06:00Ясно и безоблачно+10°C73 %757 мм1.6 м/с2 %
    09:00Ясно и безоблачно+16°C50 %758 мм3.0 м/с2 %
    12:00Ясно и безоблачно+20°C37 %758 мм3.7 м/с2 %
    15:00Ясно и безоблачно+23°C32 %757 мм3.1 м/с2 %
    18:00Ясно и безоблачно+22°C33 %756 мм2.5 м/с2 %
    21:00Ясно и безоблачно+17°C55 %756 мм1.6 м/с2 %
  • 25мая
    Суббота
    +9°
    +24°
    Ясно и безоблачно
    ВремяПогодаТемператураВлажностьДавлениеВетер, м/сВероятность осадков
    00:00Ясно и безоблачно+11°C62 %756 мм1.0 м/с2 %
    03:00Ясно и безоблачно+8°C72 %756 мм1.2 м/с2 %
    06:00Ясно и безоблачно+9°C78 %755 мм1.4 м/с2 %
    09:00Ясно и безоблачно+17°C61 %755 мм2.0 м/с2 %
    12:00Ясно и безоблачно+21°C47 %755 мм2.3 м/с2 %
    15:00Ясно и безоблачно+24°C41 %754 мм2.3 м/с2 %
    18:00Ясно и безоблачно+24°C42 %753 мм1.9 м/с4 %
    21:00Ясно и безоблачно+19°C66 %752 мм0.9 м/с2 %
  • 26мая
    Воскресенье
    +11°
    +26°
    Облачно с прояснениями
    ВремяПогодаТемператураВлажностьДавлениеВетер, м/сВероятность осадков
    00:00Ясно и безоблачно+12°C79 %752 мм0.5 м/с2 %
    03:00Ясно и безоблачно+10°C87 %752 мм0.7 м/с2 %
    06:00Ясно и безоблачно+12°C82 %752 мм0.5 м/с2 %
    09:00Практически безоблачно+20°C62 %752 мм1.0 м/с3 %
    12:00Практически безоблачно+25°C42 %752 мм1.2 м/с17 %
    15:00Облачно с прояснениями+26°C44 %752 мм1.3 м/с29 %
    18:00Облачно с прояснениями+24°C61 %752 мм1.9 м/с50 %
    21:00Ясно и безоблачно+20°C83 %752 мм2.1 м/с27 %
Мы используем cookies
Соглашаюсь